www.cux-wetter.de
Wetterdaten: Mittwoch, 13.01.2010
Datum Zeit Temp. A. Feuchte A. Luftdruck Regen Wind Richtung Richtung Sonnenschein Solar Taupunkt Windchill Windben
13.01.2010 00:01 -2,1 C 72 % 1014,5 hPa 0,0 l/m 18,7 km/h (3 Bft) SO 125 0 min 0 W/m -6,5 C -11,7 C 18,7 km/h (3 Bft)
13.01.2010 00:06 -2,1 C 72 % 1014,5 hPa 0,0 l/m 24,9 km/h (4 Bft) SO 135 0 min 0 W/m -6,5 C -14,5 C 24,9 km/h (4 Bft)
13.01.2010 00:11 -2,1 C 72 % 1014,5 hPa 0,0 l/m 22,2 km/h (4 Bft) S-SO 150 0 min 0 W/m -6,5 C -13,4 C 22,2 km/h (4 Bft)
13.01.2010 00:16 -2,1 C 72 % 1014,5 hPa 0,0 l/m 21,3 km/h (4 Bft) SO 135 0 min 0 W/m -6,5 C -13,0 C 21,3 km/h (4 Bft)
13.01.2010 00:21 -2,1 C 72 % 1014,5 hPa 0,0 l/m 23,2 km/h (4 Bft) SO 145 0 min 0 W/m -6,5 C -13,8 C 23,2 km/h (4 Bft)
13.01.2010 00:26 -2,1 C 72 % 1014,5 hPa 0,0 l/m 23,1 km/h (4 Bft) SO 135 0 min 0 W/m -6,5 C -13,8 C 23,1 km/h (4 Bft)
13.01.2010 00:31 -2,1 C 72 % 1014,5 hPa 0,0 l/m 22,3 km/h (4 Bft) SO 140 0 min 0 W/m -6,5 C -13,4 C 22,3 km/h (4 Bft)
13.01.2010 00:36 -2,1 C 72 % 1013,5 hPa 0,0 l/m 22,4 km/h (4 Bft) SO 135 0 min 0 W/m -6,5 C -13,5 C 22,4 km/h (4 Bft)
13.01.2010 00:41 -2,1 C 72 % 1013,5 hPa 0,0 l/m 20,6 km/h (4 Bft) O-SO 115 0 min 0 W/m -6,5 C -12,6 C 20,6 km/h (4 Bft)
13.01.2010 00:46 -2,1 C 72 % 1013,5 hPa 0,0 l/m 25,2 km/h (4 Bft) O-SO 120 0 min 0 W/m -6,5 C -14,6 C 25,2 km/h (4 Bft)
13.01.2010 00:51 -2,1 C 72 % 1013,5 hPa 0,0 l/m 21,5 km/h (4 Bft) SO 130 0 min 0 W/m -6,5 C -13,1 C 21,5 km/h (4 Bft)
13.01.2010 00:56 -2,1 C 72 % 1013,5 hPa 0,0 l/m 18,5 km/h (3 Bft) SO 130 0 min 0 W/m -6,5 C -11,6 C 18,5 km/h (3 Bft)
13.01.2010 01:01 -2,1 C 72 % 1013,5 hPa 0,0 l/m 20,7 km/h (4 Bft) SO 125 0 min 0 W/m -6,5 C -12,7 C 20,7 km/h (4 Bft)
13.01.2010 01:06 -2,1 C 72 % 1013,5 hPa 0,0 l/m 18,8 km/h (3 Bft) O-SO 105 0 min 0 W/m -6,5 C -11,7 C 18,8 km/h (3 Bft)
13.01.2010 01:11 -2,1 C 72 % 1013,5 hPa 0,0 l/m 19,6 km/h (3 Bft) O-SO 105 0 min 0 W/m -6,5 C -12,1 C 19,6 km/h (3 Bft)
13.01.2010 01:16 -2,1 C 72 % 1013,5 hPa 0,0 l/m 25,0 km/h (4 Bft) SO 125 0 min 0 W/m -6,5 C -14,6 C 25,0 km/h (4 Bft)
13.01.2010 01:21 -2,1 C 72 % 1013,5 hPa 0,0 l/m 16,5 km/h (3 Bft) SO 130 0 min 0 W/m -6,5 C -10,4 C 16,5 km/h (3 Bft)
13.01.2010 01:26 -2,1 C 72 % 1013,5 hPa 0,0 l/m 18,7 km/h (3 Bft) O-SO 115 0 min 0 W/m -6,5 C -11,7 C 18,7 km/h (3 Bft)
13.01.2010 01:31 -2,1 C 72 % 1013,5 hPa 0,0 l/m 27,6 km/h (5 Bft) SO 125 0 min 0 W/m -6,5 C -15,5 C 27,6 km/h (5 Bft)
13.01.2010 01:36 -2,1 C 72 % 1013,5 hPa 0,0 l/m 23,0 km/h (4 Bft) O-SO 120 0 min 0 W/m -6,5 C -13,7 C 23,0 km/h (4 Bft)
13.01.2010 01:41 -2,1 C 72 % 1013,5 hPa 0,0 l/m 23,3 km/h (4 Bft) SO 135 0 min 0 W/m -6,5 C -13,9 C 23,3 km/h (4 Bft)
13.01.2010 01:46 -2,1 C 72 % 1013,5 hPa 0,0 l/m 21,8 km/h (4 Bft) SO 125 0 min 0 W/m -6,5 C -13,2 C 21,8 km/h (4 Bft)
13.01.2010 01:51 -2,1 C 72 % 1013,5 hPa 0,0 l/m 22,1 km/h (4 Bft) SO 135 0 min 0 W/m -6,5 C -13,3 C 22,1 km/h (4 Bft)
13.01.2010 01:56 -2,1 C 72 % 1013,5 hPa 0,0 l/m 20,2 km/h (4 Bft) SO 135 0 min 0 W/m -6,5 C -12,4 C 20,2 km/h (4 Bft)
13.01.2010 02:02 -2,1 C 72 % 1013,5 hPa 0,0 l/m 15,8 km/h (3 Bft) O-SO 120 0 min 0 W/m -6,5 C -10,0 C 15,8 km/h (3 Bft)
13.01.2010 02:06 -2,1 C 72 % 1013,5 hPa 0,0 l/m 22,3 km/h (4 Bft) SO 135 0 min 0 W/m -6,5 C -13,4 C 22,3 km/h (4 Bft)
13.01.2010 02:11 -2,1 C 72 % 1013,5 hPa 0,0 l/m 13,0 km/h (3 Bft) O-SO 120 0 min 0 W/m -6,5 C -8,2 C 13,0 km/h (3 Bft)
13.01.2010 02:16 -2,1 C 72 % 1013,5 hPa 0,0 l/m 18,3 km/h (3 Bft) SO 130 0 min 0 W/m -6,5 C -11,5 C 18,3 km/h (3 Bft)
13.01.2010 02:21 -2,1 C 72 % 1012,5 hPa 0,0 l/m 20,3 km/h (4 Bft) SO 140 0 min 0 W/m -6,5 C -12,5 C 20,3 km/h (4 Bft)
13.01.2010 02:26 -2,1 C 72 % 1012,5 hPa 0,0 l/m 13,0 km/h (3 Bft) SO 125 0 min 0 W/m -6,5 C -8,2 C 13,0 km/h (3 Bft)
13.01.2010 02:31 -2,1 C 72 % 1012,5 hPa 0,0 l/m 23,6 km/h (4 Bft) O-SO 120 0 min 0 W/m -6,5 C -14,0 C 23,6 km/h (4 Bft)
13.01.2010 02:36 -2,1 C 72 % 1012,5 hPa 0,0 l/m 25,0 km/h (4 Bft) SO 125 0 min 0 W/m -6,5 C -14,6 C 25,0 km/h (4 Bft)
13.01.2010 02:41 -2,1 C 72 % 1012,5 hPa 0,0 l/m 16,8 km/h (3 Bft) SO 135 0 min 0 W/m -6,5 C -10,6 C 16,8 km/h (3 Bft)
13.01.2010 02:46 -2,1 C 72 % 1012,5 hPa 0,0 l/m 29,6 km/h (5 Bft) SO 135 0 min 0 W/m -6,5 C -16,2 C 29,6 km/h (5 Bft)
13.01.2010 02:51 -2,1 C 72 % 1012,5 hPa 0,0 l/m 22,3 km/h (4 Bft) SO 130 0 min 0 W/m -6,5 C -13,4 C 22,3 km/h (4 Bft)
13.01.2010 02:56 -2,1 C 72 % 1012,5 hPa 0,0 l/m 31,3 km/h (5 Bft) SO 130 0 min 0 W/m -6,5 C -16,8 C 31,3 km/h (5 Bft)
13.01.2010 03:01 -2,1 C 72 % 1012,5 hPa 0,0 l/m 35,1 km/h (5 Bft) SO 125 0 min 0 W/m -6,5 C -17,9 C 35,1 km/h (5 Bft)
13.01.2010 03:06 -2,1 C 72 % 1012,5 hPa 0,0 l/m 26,7 km/h (4 Bft) O-SO 120 0 min 0 W/m -6,5 C -15,2 C 26,7 km/h (4 Bft)
13.01.2010 03:11 -2,1 C 72 % 1012,5 hPa 0,0 l/m 23,8 km/h (4 Bft) SO 140 0 min 0 W/m -6,5 C -14,1 C 23,8 km/h (4 Bft)
13.01.2010 03:16 -2,1 C 72 % 1012,5 hPa 0,0 l/m 23,8 km/h (4 Bft) SO 140 0 min 0 W/m -6,5 C -14,1 C 23,8 km/h (4 Bft)
13.01.2010 03:21 -2,1 C 72 % 1012,5 hPa 0,0 l/m 23,6 km/h (4 Bft) O-SO 120 0 min 0 W/m -6,5 C -14,0 C 23,6 km/h (4 Bft)
13.01.2010 03:26 -2,1 C 72 % 1012,5 hPa 0,0 l/m 23,4 km/h (4 Bft) O 95 0 min 0 W/m -6,5 C -13,9 C 23,4 km/h (4 Bft)
13.01.2010 03:32 -2,1 C 72 % 1012,5 hPa 0,0 l/m 28,8 km/h (5 Bft) SO 135 0 min 0 W/m -6,5 C -16,0 C 28,8 km/h (5 Bft)
13.01.2010 03:36 -2,1 C 72 % 1012,5 hPa 0,0 l/m 31,5 km/h (5 Bft) SO 125 0 min 0 W/m -6,5 C -16,8 C 31,5 km/h (5 Bft)
13.01.2010 03:41 -2,1 C 72 % 1011,5 hPa 0,0 l/m 30,4 km/h (5 Bft) O-SO 115 0 min 0 W/m -6,5 C -16,5 C 30,4 km/h (5 Bft)
13.01.2010 03:46 -2,1 C 72 % 1011,5 hPa 0,0 l/m 26,9 km/h (4 Bft) O-SO 115 0 min 0 W/m -6,5 C -15,3 C 26,9 km/h (4 Bft)
13.01.2010 03:51 -2,1 C 72 % 1011,5 hPa 0,0 l/m 25,7 km/h (4 Bft) O-SO 120 0 min 0 W/m -6,5 C -14,8 C 25,7 km/h (4 Bft)
13.01.2010 03:56 -2,1 C 72 % 1011,5 hPa 0,0 l/m 31,8 km/h (5 Bft) SO 125 0 min 0 W/m -6,5 C -16,9 C 31,8 km/h (5 Bft)
13.01.2010 04:01 -2,1 C 72 % 1011,5 hPa 0,0 l/m 28,0 km/h (5 Bft) O-SO 120 0 min 0 W/m -6,5 C -15,7 C 28,0 km/h (5 Bft)
13.01.2010 04:06 -2,1 C 72 % 1011,5 hPa 0,0 l/m 29,6 km/h (5 Bft) SO 145 0 min 0 W/m -6,5 C -16,2 C 29,6 km/h (5 Bft)
13.01.2010 04:11 -2,1 C 72 % 1011,5 hPa 0,0 l/m 36,5 km/h (5 Bft) SO 130 0 min 0 W/m -6,5 C -18,2 C 36,5 km/h (5 Bft)
13.01.2010 04:16 -2,1 C 72 % 1011,5 hPa 0,0 l/m 22,6 km/h (4 Bft) SO 135 0 min 0 W/m -6,5 C -13,6 C 22,6 km/h (4 Bft)
13.01.2010 04:21 -2,1 C 72 % 1011,5 hPa 0,0 l/m 26,3 km/h (4 Bft) SO 125 0 min 0 W/m -6,5 C -15,1 C 26,3 km/h (4 Bft)
13.01.2010 04:26 -2,1 C 72 % 1011,5 hPa 0,0 l/m 31,6 km/h (5 Bft) O-SO 110 0 min 0 W/m -6,5 C -16,9 C 31,6 km/h (5 Bft)
13.01.2010 04:31 -2,1 C 72 % 1011,5 hPa 0,0 l/m 36,8 km/h (5 Bft) SO 135 0 min 0 W/m -6,5 C -18,3 C 36,8 km/h (5 Bft)
13.01.2010 04:36 -2,1 C 72 % 1011,5 hPa 0,0 l/m 33,6 km/h (5 Bft) SO 125 0 min 0 W/m -6,5 C -17,4 C 33,6 km/h (5 Bft)
13.01.2010 04:41 -2,1 C 72 % 1011,5 hPa 0,0 l/m 29,8 km/h (5 Bft) O-SO 115 0 min 0 W/m -6,5 C -16,3 C 29,8 km/h (5 Bft)
13.01.2010 04:46 -2,1 C 72 % 1011,5 hPa 0,0 l/m 27,4 km/h (5 Bft) O-SO 115 0 min 0 W/m -6,5 C -15,5 C 27,4 km/h (5 Bft)
13.01.2010 04:51 -2,1 C 72 % 1011,5 hPa 0,0 l/m 27,5 km/h (5 Bft) SO 130 0 min 0 W/m -6,5 C -15,5 C 27,5 km/h (5 Bft)
13.01.2010 04:56 -2,1 C 72 % 1011,5 hPa 0,0 l/m 39,1 km/h (6 Bft) SO 125 0 min 0 W/m -6,5 C -18,8 C 39,1 km/h (6 Bft)
13.01.2010 05:01 -2,1 C 72 % 1011,5 hPa 0,0 l/m 31,1 km/h (5 Bft) O-SO 115 0 min 0 W/m -6,5 C -16,7 C 31,1 km/h (5 Bft)
13.01.2010 05:06 -2,1 C 72 % 1011,5 hPa 0,0 l/m 26,2 km/h (4 Bft) SO 135 0 min 0 W/m -6,5 C -15,0 C 26,2 km/h (4 Bft)
13.01.2010 05:11 -2,1 C 72 % 1011,5 hPa 0,0 l/m 26,5 km/h (4 Bft) SO 125 0 min 0 W/m -6,5 C -15,1 C 26,5 km/h (4 Bft)
13.01.2010 05:16 -2,1 C 72 % 1011,5 hPa 0,0 l/m 27,8 km/h (5 Bft) O-SO 110 0 min 0 W/m -6,5 C -15,6 C 27,8 km/h (5 Bft)
13.01.2010 05:21 -2,1 C 72 % 1011,5 hPa 0,0 l/m 29,5 km/h (5 Bft) SO 125 0 min 0 W/m -6,5 C -16,2 C 29,5 km/h (5 Bft)
13.01.2010 05:26 -2,1 C 72 % 1011,5 hPa 0,0 l/m 26,5 km/h (4 Bft) SO 125 0 min 0 W/m -6,5 C -15,1 C 26,5 km/h (4 Bft)
13.01.2010 05:31 -2,1 C 72 % 1011,5 hPa 0,0 l/m 29,0 km/h (5 Bft) O-SO 115 0 min 0 W/m -6,5 C -16,0 C 29,0 km/h (5 Bft)
13.01.2010 05:36 -2,1 C 72 % 1011,5 hPa 0,0 l/m 26,6 km/h (4 Bft) O-SO 120 0 min 0 W/m -6,5 C -15,2 C 26,6 km/h (4 Bft)
13.01.2010 05:41 -2,1 C 72 % 1011,5 hPa 0,0 l/m 38,2 km/h (6 Bft) SO 125 0 min 0 W/m -6,5 C -18,6 C 38,2 km/h (6 Bft)
13.01.2010 05:46 -2,1 C 72 % 1011,5 hPa 0,0 l/m 31,5 km/h (5 Bft) O-SO 115 0 min 0 W/m -6,5 C -16,8 C 31,5 km/h (5 Bft)
13.01.2010 05:51 -2,1 C 72 % 1011,5 hPa 0,0 l/m 30,0 km/h (5 Bft) SO 130 0 min 0 W/m -6,5 C -16,4 C 30,0 km/h (5 Bft)
13.01.2010 05:56 -2,1 C 72 % 1011,5 hPa 0,0 l/m 29,2 km/h (5 Bft) SO 125 0 min 0 W/m -6,5 C -16,1 C 29,2 km/h (5 Bft)
13.01.2010 06:02 -2,1 C 72 % 1011,5 hPa 0,0 l/m 25,9 km/h (4 Bft) O-SO 120 0 min 0 W/m -6,5 C -14,9 C 25,9 km/h (4 Bft)
13.01.2010 06:07 -2,1 C 72 % 1011,5 hPa 0,0 l/m 24,3 km/h (4 Bft) O-SO 115 0 min 0 W/m -6,5 C -14,3 C 24,3 km/h (4 Bft)
13.01.2010 06:12 -2,1 C 72 % 1011,5 hPa 0,0 l/m 19,4 km/h (3 Bft) O-SO 115 0 min 0 W/m -6,5 C -12,0 C 19,4 km/h (3 Bft)
13.01.2010 06:17 -2,1 C 72 % 1011,5 hPa 0,0 l/m 18,6 km/h (3 Bft) O-SO 110 0 min 0 W/m -6,5 C -11,6 C 18,6 km/h (3 Bft)
13.01.2010 06:22 -2,1 C 72 % 1011,5 hPa 0,0 l/m 30,0 km/h (5 Bft) SO 125 0 min 0 W/m -6,5 C -16,4 C 30,0 km/h (5 Bft)
13.01.2010 06:27 -2,1 C 72 % 1011,5 hPa 0,0 l/m 27,1 km/h (5 Bft) O-SO 120 0 min 0 W/m -6,5 C -15,4 C 27,1 km/h (5 Bft)
13.01.2010 06:32 -2,1 C 72 % 1011,5 hPa 0,0 l/m 18,7 km/h (3 Bft) O-SO 120 0 min 0 W/m -6,5 C -11,7 C 18,7 km/h (3 Bft)
13.01.2010 06:37 -2,1 C 72 % 1011,5 hPa 0,0 l/m 18,7 km/h (3 Bft) O-SO 120 0 min 0 W/m -6,5 C -11,7 C 18,7 km/h (3 Bft)
13.01.2010 06:42 -2,1 C 72 % 1011,5 hPa 0,0 l/m 23,1 km/h (4 Bft) SO 130 0 min 0 W/m -6,5 C -13,8 C 23,1 km/h (4 Bft)
13.01.2010 06:47 -2,1 C 72 % 1011,5 hPa 0,0 l/m 23,4 km/h (4 Bft) SO 145 0 min 0 W/m -6,5 C -13,9 C 23,4 km/h (4 Bft)
13.01.2010 06:52 -2,1 C 72 % 1010,5 hPa 0,0 l/m 15,0 km/h (3 Bft) O-SO 120 0 min 0 W/m -6,5 C -9,5 C 15,0 km/h (3 Bft)
13.01.2010 06:57 -2,1 C 72 % 1010,5 hPa 0,0 l/m 20,2 km/h (4 Bft) SO 130 0 min 0 W/m -6,5 C -12,4 C 20,2 km/h (4 Bft)
13.01.2010 07:01 -2,1 C 72 % 1010,5 hPa 0,0 l/m 27,6 km/h (5 Bft) O-SO 115 0 min 0 W/m -6,5 C -15,5 C 27,6 km/h (5 Bft)
13.01.2010 07:07 -2,1 C 72 % 1010,5 hPa 0,0 l/m 24,9 km/h (4 Bft) O-SO 105 0 min 0 W/m -6,5 C -14,5 C 24,9 km/h (4 Bft)
13.01.2010 07:12 -2,1 C 72 % 1010,5 hPa 0,0 l/m 27,6 km/h (5 Bft) O-SO 115 0 min 0 W/m -6,5 C -15,5 C 27,6 km/h (5 Bft)
13.01.2010 07:17 -2,1 C 72 % 1010,5 hPa 0,0 l/m 25,6 km/h (4 Bft) O-SO 120 0 min 0 W/m -6,5 C -14,8 C 25,6 km/h (4 Bft)
13.01.2010 07:22 -2,1 C 72 % 1010,5 hPa 0,0 l/m 24,0 km/h (4 Bft) O-SO 110 0 min 0 W/m -6,5 C -14,2 C 24,0 km/h (4 Bft)
13.01.2010 07:27 -2,1 C 72 % 1010,5 hPa 0,0 l/m 29,4 km/h (5 Bft) SO 125 0 min 0 W/m -6,5 C -16,2 C 29,4 km/h (5 Bft)
13.01.2010 07:32 -2,1 C 72 % 1010,5 hPa 0,0 l/m 18,7 km/h (3 Bft) O 100 0 min 0 W/m -6,5 C -11,7 C 18,7 km/h (3 Bft)
13.01.2010 07:37 -2,1 C 72 % 1010,5 hPa 0,0 l/m 20,3 km/h (4 Bft) O 100 0 min 0 W/m -6,5 C -12,5 C 20,3 km/h (4 Bft)
13.01.2010 07:42 -2,1 C 72 % 1010,5 hPa 0,0 l/m 35,4 km/h (5 Bft) O 95 0 min 0 W/m -6,5 C -17,9 C 35,4 km/h (5 Bft)
13.01.2010 07:47 -2,1 C 72 % 1010,5 hPa 0,0 l/m 26,4 km/h (4 Bft) O-SO 110 0 min 0 W/m -6,5 C -15,1 C 26,4 km/h (4 Bft)
13.01.2010 07:52 -2,1 C 72 % 1010,5 hPa 0,0 l/m 22,6 km/h (4 Bft) O-SO 115 0 min 0 W/m -6,5 C -13,6 C 22,6 km/h (4 Bft)
13.01.2010 07:57 -2,1 C 72 % 1010,5 hPa 0,0 l/m 20,5 km/h (4 Bft) O-SO 120 0 min 0 W/m -6,5 C -12,6 C 20,5 km/h (4 Bft)
13.01.2010 08:02 -2,1 C 72 % 1010,5 hPa 0,0 l/m 30,2 km/h (5 Bft) SO 140 0 min 0 W/m -6,5 C -16,4 C 30,2 km/h (5 Bft)
13.01.2010 08:07 -2,1 C 72 % 1010,5 hPa 0,0 l/m 24,0 km/h (4 Bft) SO 125 0 min 0 W/m -6,5 C -14,2 C 24,0 km/h (4 Bft)
13.01.2010 08:12 -2,1 C 72 % 1010,5 hPa 0,0 l/m 24,2 km/h (4 Bft) O-SO 115 0 min 0 W/m -6,5 C -14,2 C 24,2 km/h (4 Bft)
13.01.2010 08:17 -2,1 C 72 % 1010,5 hPa 0,0 l/m 16,1 km/h (3 Bft) O-SO 120 0 min 0 W/m -6,5 C -10,2 C 16,1 km/h (3 Bft)
13.01.2010 08:22 -2,1 C 72 % 1010,5 hPa 0,0 l/m 20,2 km/h (4 Bft) SO 125 0 min 0 W/m -6,5 C -12,4 C 20,2 km/h (4 Bft)
13.01.2010 08:26 -2,1 C 72 % 1010,5 hPa 0,0 l/m 13,0 km/h (3 Bft) SO 135 0 min 0 W/m -6,5 C -8,2 C 13,0 km/h (3 Bft)
13.01.2010 08:32 -2,1 C 72 % 1010,5 hPa 0,0 l/m 22,6 km/h (4 Bft) O-SO 115 0 min 0 W/m -6,5 C -13,6 C 22,6 km/h (4 Bft)
13.01.2010 08:37 -2,1 C 72 % 1010,5 hPa 0,0 l/m 23,6 km/h (4 Bft) O-SO 120 0 min 0 W/m -6,5 C -14,0 C 23,6 km/h (4 Bft)
13.01.2010 08:42 -2,1 C 72 % 1010,5 hPa 0,0 l/m 28,0 km/h (5 Bft) O-SO 120 0 min 0 W/m -6,5 C -15,7 C 28,0 km/h (5 Bft)
13.01.2010 08:47 -2,1 C 72 % 1010,5 hPa 0,0 l/m 19,5 km/h (3 Bft) O-SO 120 0 min 0 W/m -6,5 C -12,1 C 19,5 km/h (3 Bft)
13.01.2010 08:52 -2,1 C 72 % 1010,5 hPa 0,0 l/m 19,6 km/h (3 Bft) O 100 0 min 0 W/m -6,5 C -12,1 C 19,6 km/h (3 Bft)
13.01.2010 08:57 -2,1 C 72 % 1010,5 hPa 0,0 l/m 19,9 km/h (4 Bft) O 100 0 min 0 W/m -6,5 C -12,3 C 19,9 km/h (4 Bft)
13.01.2010 09:02 -2,1 C 72 % 1010,5 hPa 0,0 l/m 21,9 km/h (4 Bft) O-SO 110 0 min 0 W/m -6,5 C -13,2 C 21,9 km/h (4 Bft)
13.01.2010 09:07 -2,1 C 72 % 1010,5 hPa 0,0 l/m 27,9 km/h (5 Bft) O-SO 120 0 min 0 W/m -6,5 C -15,6 C 27,9 km/h (5 Bft)
13.01.2010 09:12 -2,1 C 72 % 1010,5 hPa 0,0 l/m 21,9 km/h (4 Bft) SO 125 0 min 0 W/m -6,5 C -13,2 C 21,9 km/h (4 Bft)
13.01.2010 09:17 -2,1 C 72 % 1010,5 hPa 0,0 l/m 6,4 km/h (2 Bft) O-NO 70 0 min 0 W/m -6,5 C -2,1 C 6,4 km/h (2 Bft)
13.01.2010 09:22 -2,1 C 72 % 1010,5 hPa 0,0 l/m 29,5 km/h (5 Bft) O-SO 115 0 min 0 W/m -6,5 C -16,2 C 29,5 km/h (5 Bft)
13.01.2010 09:27 -2,1 C 72 % 1010,5 hPa 0,0 l/m 26,6 km/h (4 Bft) O-SO 115 0 min 0 W/m -6,5 C -15,2 C 26,6 km/h (4 Bft)
13.01.2010 09:32 -2,1 C 72 % 1010,5 hPa 0,0 l/m 26,2 km/h (4 Bft) SO 130 0 min 0 W/m -6,5 C -15,0 C 26,2 km/h (4 Bft)
13.01.2010 09:37 -2,1 C 72 % 1010,5 hPa 0,0 l/m 27,6 km/h (5 Bft) SO 125 0 min 0 W/m -6,5 C -15,5 C 27,6 km/h (5 Bft)
13.01.2010 09:42 -2,1 C 72 % 1010,5 hPa 0,0 l/m 33,1 km/h (5 Bft) O-SO 120 0 min 0 W/m -6,5 C -17,3 C 33,1 km/h (5 Bft)
13.01.2010 09:47 -2,1 C 72 % 1010,5 hPa 0,0 l/m 35,3 km/h (5 Bft) SO 125 0 min 0 W/m -6,5 C -17,9 C 35,3 km/h (5 Bft)
13.01.2010 09:51 -2,1 C 72 % 1010,5 hPa 0,0 l/m 30,8 km/h (5 Bft) O-SO 120 0 min 0 W/m -6,5 C -16,6 C 30,8 km/h (5 Bft)
13.01.2010 09:57 -2,1 C 72 % 1010,5 hPa 0,0 l/m 23,9 km/h (4 Bft) SO 130 0 min 0 W/m -6,5 C -14,1 C 23,9 km/h (4 Bft)
13.01.2010 10:02 -2,1 C 72 % 1010,5 hPa 0,0 l/m 32,0 km/h (5 Bft) SO 125 0 min 0 W/m -6,5 C -17,0 C 32,0 km/h (5 Bft)
13.01.2010 10:07 -2,1 C 72 % 1010,5 hPa 0,0 l/m 23,1 km/h (4 Bft) SO 130 0 min 0 W/m -6,5 C -13,8 C 23,1 km/h (4 Bft)
13.01.2010 10:12 -2,1 C 72 % 1010,5 hPa 0,0 l/m 28,2 km/h (5 Bft) O-SO 120 0 min 0 W/m -6,5 C -15,8 C 28,2 km/h (5 Bft)
13.01.2010 10:17 -2,1 C 72 % 1010,5 hPa 0,0 l/m 29,4 km/h (5 Bft) SO 125 0 min 0 W/m -6,5 C -16,2 C 29,4 km/h (5 Bft)
13.01.2010 10:22 -2,1 C 72 % 1010,5 hPa 0,0 l/m 22,6 km/h (4 Bft) SO 130 0 min 0 W/m -6,5 C -13,6 C 22,6 km/h (4 Bft)
13.01.2010 10:27 -2,1 C 72 % 1010,5 hPa 0,0 l/m 34,3 km/h (5 Bft) O-SO 115 0 min 0 W/m -6,5 C -17,6 C 34,3 km/h (5 Bft)
13.01.2010 10:32 -2,1 C 72 % 1010,5 hPa 0,0 l/m 31,6 km/h (5 Bft) O-SO 115 0 min 0 W/m -6,5 C -16,9 C 31,6 km/h (5 Bft)
13.01.2010 10:37 -2,1 C 72 % 1010,5 hPa 0,0 l/m 22,5 km/h (4 Bft) SO 125 0 min 0 W/m -6,5 C -13,5 C 22,5 km/h (4 Bft)
13.01.2010 10:42 -2,1 C 72 % 1010,5 hPa 0,0 l/m 33,1 km/h (5 Bft) O-SO 110 0 min 0 W/m -6,5 C -17,3 C 33,1 km/h (5 Bft)
13.01.2010 10:47 -2,1 C 72 % 1010,5 hPa 0,0 l/m 27,6 km/h (5 Bft) SO 125 0 min 0 W/m -6,5 C -15,5 C 27,6 km/h (5 Bft)
13.01.2010 10:52 -2,1 C 72 % 1010,5 hPa 0,0 l/m 26,2 km/h (4 Bft) SO 130 0 min 0 W/m -6,5 C -15,0 C 26,2 km/h (4 Bft)
13.01.2010 10:57 -2,1 C 72 % 1010,5 hPa 0,0 l/m 21,5 km/h (4 Bft) SO 125 0 min 0 W/m -6,5 C -13,1 C 21,5 km/h (4 Bft)
13.01.2010 11:02 -2,1 C 72 % 1010,5 hPa 0,0 l/m 33,5 km/h (5 Bft) SO 130 0 min 0 W/m -6,5 C -17,4 C 33,5 km/h (5 Bft)
13.01.2010 11:07 -2,1 C 72 % 1010,5 hPa 0,0 l/m 31,1 km/h (5 Bft) O-SO 110 0 min 0 W/m -6,5 C -16,7 C 31,1 km/h (5 Bft)
13.01.2010 11:12 -2,1 C 72 % 1010,5 hPa 0,0 l/m 37,4 km/h (5 Bft) SO 125 0 min 0 W/m -6,5 C -18,4 C 37,4 km/h (5 Bft)
13.01.2010 11:17 -2,1 C 72 % 1010,5 hPa 0,0 l/m 25,9 km/h (4 Bft) O-SO 115 0 min 0 W/m -6,5 C -14,9 C 25,9 km/h (4 Bft)
13.01.2010 11:22 -2,1 C 72 % 1010,5 hPa 0,0 l/m 27,1 km/h (5 Bft) SO 135 0 min 0 W/m -6,5 C -15,4 C 27,1 km/h (5 Bft)
13.01.2010 11:27 -2,1 C 72 % 1010,5 hPa 0,0 l/m 25,9 km/h (4 Bft) SO 140 0 min 0 W/m -6,5 C -14,9 C 25,9 km/h (4 Bft)
13.01.2010 11:32 -2,1 C 72 % 1010,5 hPa 0,0 l/m 24,6 km/h (4 Bft) SO 130 0 min 0 W/m -6,5 C -14,4 C 24,6 km/h (4 Bft)
13.01.2010 11:37 -2,1 C 72 % 1010,5 hPa 0,0 l/m 29,0 km/h (5 Bft) O-SO 120 0 min 0 W/m -6,5 C -16,0 C 29,0 km/h (5 Bft)
13.01.2010 11:42 -2,1 C 72 % 1010,5 hPa 0,0 l/m 31,9 km/h (5 Bft) SO 125 0 min 0 W/m -6,5 C -17,0 C 31,9 km/h (5 Bft)
13.01.2010 11:47 -2,1 C 72 % 1010,5 hPa 0,0 l/m 29,9 km/h (5 Bft) SO 130 0 min 0 W/m -6,5 C -16,3 C 29,9 km/h (5 Bft)
13.01.2010 11:52 -2,1 C 72 % 1010,5 hPa 0,0 l/m 23,0 km/h (4 Bft) SO 135 0 min 0 W/m -6,5 C -13,7 C 23,0 km/h (4 Bft)
13.01.2010 11:57 -2,1 C 72 % 1010,5 hPa 0,0 l/m 26,4 km/h (4 Bft) SO 135 0 min 0 W/m -6,5 C -15,1 C 26,4 km/h (4 Bft)
13.01.2010 12:02 -2,1 C 72 % 1010,5 hPa 0,0 l/m 24,6 km/h (4 Bft) O-SO 110 0 min 0 W/m -6,5 C -14,4 C 24,6 km/h (4 Bft)
13.01.2010 12:07 -2,1 C 72 % 1010,5 hPa 0,0 l/m 30,6 km/h (5 Bft) SO 125 0 min 0 W/m -6,5 C -16,6 C 30,6 km/h (5 Bft)
13.01.2010 12:12 -2,1 C 72 % 1010,5 hPa 0,0 l/m 22,1 km/h (4 Bft) SO 130 0 min 0 W/m -6,5 C -13,3 C 22,1 km/h (4 Bft)
13.01.2010 12:17 -2,1 C 72 % 1010,5 hPa 0,0 l/m 31,1 km/h (5 Bft) SO 135 0 min 0 W/m -6,5 C -16,7 C 31,1 km/h (5 Bft)
13.01.2010 12:22 -2,1 C 72 % 1010,5 hPa 0,0 l/m 25,4 km/h (4 Bft) SO 125 0 min 0 W/m -6,5 C -14,7 C 25,4 km/h (4 Bft)
13.01.2010 12:27 -2,1 C 72 % 1009,5 hPa 0,0 l/m 26,0 km/h (4 Bft) SO 125 0 min 0 W/m -6,5 C -15,0 C 26,0 km/h (4 Bft)
13.01.2010 12:32 -2,1 C 72 % 1009,5 hPa 0,0 l/m 30,5 km/h (5 Bft) O-SO 115 0 min 0 W/m -6,5 C -16,5 C 30,5 km/h (5 Bft)
13.01.2010 12:37 -2,1 C 72 % 1009,5 hPa 0,0 l/m 25,5 km/h (4 Bft) SO 140 0 min 0 W/m -6,5 C -14,8 C 25,5 km/h (4 Bft)
13.01.2010 12:42 -2,1 C 72 % 1009,5 hPa 0,0 l/m 33,4 km/h (5 Bft) O-SO 120 0 min 0 W/m -6,5 C -17,4 C 33,4 km/h (5 Bft)
13.01.2010 12:47 -2,1 C 72 % 1009,5 hPa 0,0 l/m 32,0 km/h (5 Bft) SO 135 0 min 0 W/m -6,5 C -17,0 C 32,0 km/h (5 Bft)
13.01.2010 12:52 -2,1 C 72 % 1009,5 hPa 0,0 l/m 30,0 km/h (5 Bft) SO 130 0 min 0 W/m -6,5 C -16,4 C 30,0 km/h (5 Bft)
13.01.2010 12:57 -2,1 C 72 % 1009,5 hPa 0,0 l/m 31,9 km/h (5 Bft) SO 125 0 min 0 W/m -6,5 C -17,0 C 31,9 km/h (5 Bft)
13.01.2010 13:02 -2,1 C 72 % 1009,5 hPa 0,0 l/m 32,2 km/h (5 Bft) O-SO 105 0 min 0 W/m -6,5 C -17,0 C 32,2 km/h (5 Bft)
13.01.2010 13:07 -2,1 C 72 % 1009,5 hPa 0,0 l/m 29,6 km/h (5 Bft) SO 125 0 min 0 W/m -6,5 C -16,2 C 29,6 km/h (5 Bft)
13.01.2010 13:12 -2,1 C 72 % 1009,5 hPa 0,0 l/m 40,2 km/h (6 Bft) SO 125 0 min 0 W/m -6,5 C -19,1 C 40,2 km/h (6 Bft)
13.01.2010 13:17 -2,1 C 72 % 1009,5 hPa 0,0 l/m 29,7 km/h (5 Bft) SO 140 0 min 0 W/m -6,5 C -16,3 C 29,7 km/h (5 Bft)
13.01.2010 13:22 -2,1 C 72 % 1009,5 hPa 0,0 l/m 31,0 km/h (5 Bft) SO 140 0 min 0 W/m -6,5 C -16,7 C 31,0 km/h (5 Bft)
13.01.2010 13:27 -2,1 C 72 % 1009,5 hPa 0,0 l/m 34,6 km/h (5 Bft) O-SO 115 0 min 0 W/m -6,5 C -17,7 C 34,6 km/h (5 Bft)
13.01.2010 13:32 -2,1 C 72 % 1009,5 hPa 0,0 l/m 33,9 km/h (5 Bft) O-SO 115 0 min 0 W/m -6,5 C -17,5 C 33,9 km/h (5 Bft)
13.01.2010 13:37 -2,1 C 72 % 1009,5 hPa 0,0 l/m 30,5 km/h (5 Bft) SO 135 0 min 0 W/m -6,5 C -16,5 C 30,5 km/h (5 Bft)
13.01.2010 13:42 -2,1 C 72 % 1009,5 hPa 0,0 l/m 35,6 km/h (5 Bft) SO 130 0 min 0 W/m -6,5 C -18,0 C 35,6 km/h (5 Bft)
13.01.2010 13:47 -2,1 C 72 % 1009,5 hPa 0,0 l/m 19,5 km/h (3 Bft) SO 130 0 min 0 W/m -6,5 C -12,1 C 19,5 km/h (3 Bft)
13.01.2010 13:52 -2,1 C 72 % 1009,5 hPa 0,0 l/m 26,2 km/h (4 Bft) SO 140 0 min 0 W/m -6,5 C -15,0 C 26,2 km/h (4 Bft)
13.01.2010 13:57 -2,1 C 72 % 1009,5 hPa 0,0 l/m 29,0 km/h (5 Bft) SO 130 0 min 0 W/m -6,5 C -16,0 C 29,0 km/h (5 Bft)
13.01.2010 14:02 -2,1 C 72 % 1009,5 hPa 0,0 l/m 32,7 km/h (5 Bft) O-SO 120 0 min 0 W/m -6,5 C -17,2 C 32,7 km/h (5 Bft)
13.01.2010 14:07 -2,1 C 72 % 1009,5 hPa 0,0 l/m 30,6 km/h (5 Bft) SO 125 0 min 0 W/m -6,5 C -16,6 C 30,6 km/h (5 Bft)
13.01.2010 14:12 -2,1 C 72 % 1009,5 hPa 0,0 l/m 35,0 km/h (5 Bft) SO 130 0 min 0 W/m -6,5 C -17,8 C 35,0 km/h (5 Bft)
13.01.2010 14:17 -2,1 C 72 % 1009,5 hPa 0,0 l/m 29,0 km/h (5 Bft) SO 130 0 min 0 W/m -6,5 C -16,0 C 29,0 km/h (5 Bft)
13.01.2010 14:22 -2,1 C 72 % 1009,5 hPa 0,0 l/m 25,5 km/h (4 Bft) O-SO 120 0 min 0 W/m -6,5 C -14,8 C 25,5 km/h (4 Bft)
13.01.2010 14:27 -2,1 C 72 % 1009,5 hPa 0,0 l/m 30,1 km/h (5 Bft) SO 125 0 min 0 W/m -6,5 C -16,4 C 30,1 km/h (5 Bft)
13.01.2010 14:32 -2,1 C 72 % 1009,5 hPa 0,0 l/m 28,1 km/h (5 Bft) SO 145 0 min 0 W/m -6,5 C -15,7 C 28,1 km/h (5 Bft)
13.01.2010 14:37 -2,1 C 72 % 1009,5 hPa 0,0 l/m 26,4 km/h (4 Bft) SO 130 0 min 0 W/m -6,5 C -15,1 C 26,4 km/h (4 Bft)
13.01.2010 14:42 -2,1 C 72 % 1009,5 hPa 0,0 l/m 23,4 km/h (4 Bft) SO 140 0 min 0 W/m -6,5 C -13,9 C 23,4 km/h (4 Bft)
13.01.2010 14:47 -2,1 C 72 % 1008,5 hPa 0,0 l/m 25,0 km/h (4 Bft) SO 130 0 min 0 W/m -6,5 C -14,6 C 25,0 km/h (4 Bft)
13.01.2010 14:52 -2,1 C 72 % 1008,5 hPa 0,0 l/m 33,1 km/h (5 Bft) O-SO 110 0 min 0 W/m -6,5 C -17,3 C 33,1 km/h (5 Bft)
13.01.2010 14:57 -2,1 C 72 % 1008,5 hPa 0,0 l/m 30,0 km/h (5 Bft) SO 125 0 min 0 W/m -6,5 C -16,4 C 30,0 km/h (5 Bft)
13.01.2010 15:02 -2,1 C 72 % 1008,5 hPa 0,0 l/m 23,7 km/h (4 Bft) SO 140 0 min 0 W/m -6,5 C -14,0 C 23,7 km/h (4 Bft)
13.01.2010 15:07 -2,1 C 72 % 1008,5 hPa 0,0 l/m 35,4 km/h (5 Bft) O-SO 115 0 min 0 W/m -6,5 C -17,9 C 35,4 km/h (5 Bft)
13.01.2010 15:12 -2,1 C 72 % 1008,5 hPa 0,0 l/m 33,7 km/h (5 Bft) SO 125 0 min 0 W/m -6,5 C -17,5 C 33,7 km/h (5 Bft)
13.01.2010 15:17 -2,1 C 72 % 1008,5 hPa 0,0 l/m 27,6 km/h (5 Bft) SO 125 0 min 0 W/m -6,5 C -15,5 C 27,6 km/h (5 Bft)
13.01.2010 15:22 -2,1 C 72 % 1018,5 hPa 0,0 l/m 30,6 km/h (5 Bft) SO 130 0 min 0 W/m -6,5 C -16,6 C 30,6 km/h (5 Bft)
13.01.2010 15:27 -2,1 C 72 % 1008,5 hPa 0,0 l/m 31,1 km/h (5 Bft) SO 130 0 min 0 W/m -6,5 C -16,7 C 31,1 km/h (5 Bft)
13.01.2010 15:32 -2,1 C 72 % 1008,5 hPa 0,0 l/m 24,3 km/h (4 Bft) SO 135 0 min 0 W/m -6,5 C -14,3 C 24,3 km/h (4 Bft)
13.01.2010 15:37 -2,1 C 72 % 1008,5 hPa 0,0 l/m 18,9 km/h (3 Bft) O-SO 115 0 min 0 W/m -6,5 C -11,8 C 18,9 km/h (3 Bft)
13.01.2010 15:42 -2,1 C 72 % 1008,5 hPa 0,0 l/m 30,5 km/h (5 Bft) SO 135 0 min 0 W/m -6,5 C -16,5 C 30,5 km/h (5 Bft)
13.01.2010 15:47 -2,1 C 72 % 1008,5 hPa 0,0 l/m 32,5 km/h (5 Bft) SO 135 0 min 0 W/m -6,5 C -17,1 C 32,5 km/h (5 Bft)
13.01.2010 15:52 -2,1 C 72 % 1008,5 hPa 0,0 l/m 29,0 km/h (5 Bft) SO 130 0 min 0 W/m -6,5 C -16,0 C 29,0 km/h (5 Bft)
13.01.2010 15:57 -2,1 C 72 % 1008,5 hPa 0,0 l/m 35,3 km/h (5 Bft) SO 140 0 min 0 W/m -6,5 C -17,9 C 35,3 km/h (5 Bft)
13.01.2010 16:02 -2,1 C 72 % 1008,5 hPa 0,0 l/m 24,4 km/h (4 Bft) SO 125 0 min 0 W/m -6,5 C -14,3 C 24,4 km/h (4 Bft)
13.01.2010 16:07 -2,1 C 72 % 1008,5 hPa 0,0 l/m 33,4 km/h (5 Bft) SO 125 0 min 0 W/m -6,5 C -17,4 C 33,4 km/h (5 Bft)
13.01.2010 16:12 -2,1 C 72 % 1008,5 hPa 0,0 l/m 24,6 km/h (4 Bft) O-SO 105 0 min 0 W/m -6,5 C -14,4 C 24,6 km/h (4 Bft)
13.01.2010 16:17 -2,1 C 72 % 1008,5 hPa 0,0 l/m 37,9 km/h (6 Bft) SO 130 0 min 0 W/m -6,5 C -18,6 C 37,9 km/h (6 Bft)
13.01.2010 16:22 -2,1 C 72 % 1008,5 hPa 0,0 l/m 37,9 km/h (6 Bft) SO 130 0 min 0 W/m -6,5 C -18,6 C 37,9 km/h (6 Bft)
13.01.2010 16:27 -2,1 C 72 % 1008,5 hPa 0,0 l/m 26,8 km/h (4 Bft) SO 135 0 min 0 W/m -6,5 C -15,3 C 26,8 km/h (4 Bft)
13.01.2010 16:32 -2,1 C 72 % 1008,5 hPa 0,0 l/m 29,1 km/h (5 Bft) SO 125 0 min 0 W/m -6,5 C -16,1 C 29,1 km/h (5 Bft)
13.01.2010 16:37 -2,1 C 72 % 1008,5 hPa 0,0 l/m 31,9 km/h (5 Bft) O-SO 120 0 min 0 W/m -6,5 C -17,0 C 31,9 km/h (5 Bft)
13.01.2010 16:42 -2,1 C 72 % 1008,5 hPa 0,0 l/m 34,8 km/h (5 Bft) SO 140 0 min 0 W/m -6,5 C -17,8 C 34,8 km/h (5 Bft)
13.01.2010 16:47 -2,1 C 72 % 1008,5 hPa 0,0 l/m 31,6 km/h (5 Bft) SO 145 0 min 0 W/m -6,5 C -16,9 C 31,6 km/h (5 Bft)
13.01.2010 16:52 -2,1 C 72 % 1008,5 hPa 0,0 l/m 29,0 km/h (5 Bft) O-SO 120 0 min 0 W/m -6,5 C -16,0 C 29,0 km/h (5 Bft)
13.01.2010 16:56 -2,1 C 72 % 1008,5 hPa 0,0 l/m 27,5 km/h (5 Bft) SO 130 0 min 0 W/m -6,5 C -15,5 C 27,5 km/h (5 Bft)
13.01.2010 17:02 -2,1 C 72 % 1008,5 hPa 0,0 l/m 22,5 km/h (4 Bft) SO 140 0 min 0 W/m -6,5 C -13,5 C 22,5 km/h (4 Bft)
13.01.2010 17:07 -2,1 C 72 % 1008,5 hPa 0,0 l/m 27,8 km/h (5 Bft) SO 135 0 min 0 W/m -6,5 C -15,6 C 27,8 km/h (5 Bft)
13.01.2010 17:12 -2,1 C 72 % 1009,5 hPa 0,0 l/m 21,0 km/h (4 Bft) SO 135 0 min 0 W/m -6,5 C -12,8 C 21,0 km/h (4 Bft)
13.01.2010 17:17 -2,1 C 72 % 1009,5 hPa 0,0 l/m 20,9 km/h (4 Bft) SO 135 0 min 0 W/m -6,5 C -12,8 C 20,9 km/h (4 Bft)
13.01.2010 17:22 -2,1 C 72 % 1009,5 hPa 0,0 l/m 31,7 km/h (5 Bft) SO 145 0 min 0 W/m -6,5 C -16,9 C 31,7 km/h (5 Bft)
13.01.2010 17:27 -2,1 C 72 % 1009,5 hPa 0,0 l/m 24,7 km/h (4 Bft) S-SO 150 0 min 0 W/m -6,5 C -14,4 C 24,7 km/h (4 Bft)
13.01.2010 17:32 -2,1 C 72 % 1009,5 hPa 0,0 l/m 26,1 km/h (4 Bft) SO 145 0 min 0 W/m -6,5 C -15,0 C 26,1 km/h (4 Bft)
13.01.2010 17:37 -1,7 C 82 % 1009,5 hPa 0,0 l/m 25,4 km/h (4 Bft) SO 140 0 min 0 W/m -4,4 C -14,2 C 25,4 km/h (4 Bft)
13.01.2010 17:42 -1,7 C 82 % 1009,5 hPa 0,0 l/m 24,2 km/h (4 Bft) S-SO 155 0 min 0 W/m -4,4 C -13,7 C 24,2 km/h (4 Bft)
13.01.2010 17:47 -1,8 C 82 % 1008,5 hPa 0,0 l/m 34,3 km/h (5 Bft) SO 140 0 min 0 W/m -4,5 C -17,2 C 34,3 km/h (5 Bft)
13.01.2010 17:52 -1,7 C 82 % 1008,5 hPa 0,0 l/m 21,2 km/h (4 Bft) SO 140 0 min 0 W/m -4,4 C -12,4 C 21,2 km/h (4 Bft)
13.01.2010 17:57 -1,7 C 82 % 1008,5 hPa 0,0 l/m 38,0 km/h (6 Bft) S-SO 150 0 min 0 W/m -4,4 C -18,0 C 38,0 km/h (6 Bft)
13.01.2010 18:02 -1,7 C 82 % 1008,5 hPa 0,0 l/m 25,0 km/h (4 Bft) SO 135 0 min 0 W/m -4,4 C -14,0 C 25,0 km/h (4 Bft)
13.01.2010 18:07 -1,6 C 82 % 1008,5 hPa 0,0 l/m 17,3 km/h (3 Bft) SO 135 0 min 0 W/m -4,3 C -10,3 C 17,3 km/h (3 Bft)
13.01.2010 18:12 -1,6 C 82 % 1008,5 hPa 0,0 l/m 32,7 km/h (5 Bft) SO 135 0 min 0 W/m -4,3 C -16,5 C 32,7 km/h (5 Bft)
13.01.2010 18:17 -1,6 C 82 % 1008,5 hPa 0,0 l/m 28,3 km/h (5 Bft) SO 130 0 min 0 W/m -4,3 C -15,1 C 28,3 km/h (5 Bft)
13.01.2010 18:22 -1,6 C 82 % 1008,5 hPa 0,0 l/m 27,1 km/h (5 Bft) SO 140 0 min 0 W/m -4,3 C -14,7 C 27,1 km/h (5 Bft)
13.01.2010 18:27 -1,6 C 82 % 1008,5 hPa 0,0 l/m 20,2 km/h (4 Bft) S-SO 155 0 min 0 W/m -4,3 C -11,8 C 20,2 km/h (4 Bft)
13.01.2010 18:32 -1,6 C 82 % 1008,5 hPa 0,0 l/m 30,9 km/h (5 Bft) SO 145 0 min 0 W/m -4,3 C -15,9 C 30,9 km/h (5 Bft)
13.01.2010 18:37 -1,6 C 82 % 1008,5 hPa 0,0 l/m 31,9 km/h (5 Bft) S-SO 150 0 min 0 W/m -4,3 C -16,2 C 31,9 km/h (5 Bft)
13.01.2010 18:42 -1,6 C 82 % 1008,5 hPa 0,0 l/m 27,0 km/h (5 Bft) SO 145 0 min 0 W/m -4,3 C -14,6 C 27,0 km/h (5 Bft)
13.01.2010 18:47 -1,6 C 82 % 1008,5 hPa 0,0 l/m 32,7 km/h (5 Bft) SO 135 0 min 0 W/m -4,3 C -16,5 C 32,7 km/h (5 Bft)
13.01.2010 18:52 -1,6 C 82 % 1008,5 hPa 0,0 l/m 33,2 km/h (5 Bft) S-SO 150 0 min 0 W/m -4,3 C -16,6 C 33,2 km/h (5 Bft)
13.01.2010 18:57 -1,6 C 82 % 1008,5 hPa 0,0 l/m 32,5 km/h (5 Bft) SO 135 0 min 0 W/m -4,3 C -16,4 C 32,5 km/h (5 Bft)
13.01.2010 19:02 -1,6 C 82 % 1008,5 hPa 0,0 l/m 30,2 km/h (5 Bft) SO 140 0 min 0 W/m -4,3 C -15,7 C 30,2 km/h (5 Bft)
13.01.2010 19:07 -1,6 C 82 % 1008,5 hPa 0,0 l/m 30,0 km/h (5 Bft) SO 145 0 min 0 W/m -4,3 C -15,7 C 30,0 km/h (5 Bft)
13.01.2010 19:12 -1,6 C 82 % 1008,5 hPa 0,0 l/m 31,8 km/h (5 Bft) SO 145 0 min 0 W/m -4,3 C -16,2 C 31,8 km/h (5 Bft)
13.01.2010 19:17 -1,6 C 82 % 1008,5 hPa 0,0 l/m 31,8 km/h (5 Bft) SO 145 0 min 0 W/m -4,3 C -16,2 C 31,8 km/h (5 Bft)
13.01.2010 19:22 -1,6 C 82 % 1008,5 hPa 0,0 l/m 34,4 km/h (5 Bft) SO 145 0 min 0 W/m -4,3 C -16,9 C 34,4 km/h (5 Bft)
13.01.2010 19:27 -1,6 C 82 % 1008,5 hPa 0,0 l/m 36,0 km/h (5 Bft) S-SO 150 0 min 0 W/m -4,3 C -17,4 C 36,0 km/h (5 Bft)
13.01.2010 19:32 -1,6 C 82 % 1008,5 hPa 0,0 l/m 34,3 km/h (5 Bft) S-SO 155 0 min 0 W/m -4,3 C -16,9 C 34,3 km/h (5 Bft)
13.01.2010 19:37 -1,6 C 82 % 1008,5 hPa 0,0 l/m 36,2 km/h (5 Bft) S-SO 155 0 min 0 W/m -4,3 C -17,4 C 36,2 km/h (5 Bft)
13.01.2010 19:41 -1,6 C 82 % 1008,5 hPa 0,0 l/m 30,4 km/h (5 Bft) SO 135 0 min 0 W/m -4,3 C -15,8 C 30,4 km/h (5 Bft)
13.01.2010 19:47 -1,6 C 82 % 1008,5 hPa 0,0 l/m 30,9 km/h (5 Bft) S-SO 155 0 min 0 W/m -4,3 C -15,9 C 30,9 km/h (5 Bft)
13.01.2010 19:52 -1,6 C 82 % 1008,5 hPa 0,0 l/m 33,6 km/h (5 Bft) S-SO 165 0 min 0 W/m -4,3 C -16,7 C 33,6 km/h (5 Bft)
13.01.2010 19:57 -1,6 C 82 % 1008,5 hPa 0,0 l/m 30,1 km/h (5 Bft) S-SO 160 0 min 0 W/m -4,3 C -15,7 C 30,1 km/h (5 Bft)
13.01.2010 20:02 -1,6 C 83 % 1008,5 hPa 0,0 l/m 34,5 km/h (5 Bft) S-SO 160 0 min 0 W/m -4,1 C -17,0 C 34,5 km/h (5 Bft)
13.01.2010 20:07 -1,6 C 83 % 1008,5 hPa 0,0 l/m 34,6 km/h (5 Bft) S-SO 160 0 min 0 W/m -4,1 C -17,0 C 34,6 km/h (5 Bft)
13.01.2010 20:12 -1,6 C 83 % 1018,5 hPa 0,0 l/m 29,0 km/h (5 Bft) SO 140 0 min 0 W/m -4,1 C -15,3 C 29,0 km/h (5 Bft)
13.01.2010 20:17 -1,5 C 82 % 1008,5 hPa 0,0 l/m 33,6 km/h (5 Bft) SO 140 0 min 0 W/m -4,2 C -16,6 C 33,6 km/h (5 Bft)
13.01.2010 20:22 -1,5 C 82 % 1008,5 hPa 0,0 l/m 23,1 km/h (4 Bft) S-SO 150 0 min 0 W/m -4,2 C -13,0 C 23,1 km/h (4 Bft)
13.01.2010 20:27 -1,5 C 83 % 1008,5 hPa 0,0 l/m 30,5 km/h (5 Bft) SO 135 0 min 0 W/m -4,0 C -15,7 C 30,5 km/h (5 Bft)
13.01.2010 20:32 -1,5 C 82 % 1008,5 hPa 0,0 l/m 37,4 km/h (5 Bft) SO 145 0 min 0 W/m -4,2 C -17,6 C 37,4 km/h (5 Bft)
13.01.2010 20:37 -1,5 C 82 % 1008,5 hPa 0,0 l/m 26,4 km/h (4 Bft) SO 130 0 min 0 W/m -4,2 C -14,3 C 26,4 km/h (4 Bft)
13.01.2010 20:42 -1,5 C 82 % 1008,5 hPa 0,0 l/m 25,5 km/h (4 Bft) SO 135 0 min 0 W/m -4,2 C -13,9 C 25,5 km/h (4 Bft)
13.01.2010 20:47 -1,4 C 82 % 1008,5 hPa 0,0 l/m 21,3 km/h (4 Bft) SO 140 0 min 0 W/m -4,1 C -12,1 C 21,3 km/h (4 Bft)
13.01.2010 20:52 -1,4 C 82 % 1008,5 hPa 0,0 l/m 16,1 km/h (3 Bft) SO 125 0 min 0 W/m -4,1 C -9,3 C 16,1 km/h (3 Bft)
13.01.2010 20:57 -1,4 C 82 % 1008,5 hPa 0,0 l/m 20,6 km/h (4 Bft) S-SO 155 0 min 0 W/m -4,1 C -11,7 C 20,6 km/h (4 Bft)
13.01.2010 21:02 -1,4 C 82 % 1008,5 hPa 0,0 l/m 27,5 km/h (5 Bft) SO 145 0 min 0 W/m -4,1 C -14,5 C 27,5 km/h (5 Bft)
13.01.2010 21:07 -1,4 C 82 % 1008,5 hPa 0,0 l/m 27,5 km/h (5 Bft) SO 145 0 min 0 W/m -4,1 C -14,5 C 27,5 km/h (5 Bft)
13.01.2010 21:12 -1,4 C 82 % 1008,5 hPa 0,0 l/m 30,7 km/h (5 Bft) S-SO 160 0 min 0 W/m -4,1 C -15,6 C 30,7 km/h (5 Bft)
13.01.2010 21:17 -1,4 C 82 % 1008,5 hPa 0,0 l/m 27,6 km/h (5 Bft) S-SO 160 0 min 0 W/m -4,1 C -14,6 C 27,6 km/h (5 Bft)
13.01.2010 21:22 -1,4 C 82 % 1008,5 hPa 0,0 l/m 24,3 km/h (4 Bft) S-SO 155 0 min 0 W/m -4,1 C -13,3 C 24,3 km/h (4 Bft)
13.01.2010 21:27 -1,4 C 82 % 1008,5 hPa 0,0 l/m 28,7 km/h (5 Bft) S-SO 155 0 min 0 W/m -4,1 C -15,0 C 28,7 km/h (5 Bft)
13.01.2010 21:32 -1,4 C 82 % 1008,5 hPa 0,0 l/m 25,5 km/h (4 Bft) S-SO 155 0 min 0 W/m -4,1 C -13,8 C 25,5 km/h (4 Bft)
13.01.2010 21:37 -1,4 C 82 % 1008,5 hPa 0,0 l/m 36,8 km/h (5 Bft) S-SO 150 0 min 0 W/m -4,1 C -17,3 C 36,8 km/h (5 Bft)
13.01.2010 21:42 -1,4 C 82 % 1008,5 hPa 0,0 l/m 24,6 km/h (4 Bft) SO 140 0 min 0 W/m -4,1 C -13,5 C 24,6 km/h (4 Bft)
13.01.2010 21:47 -1,4 C 82 % 1008,5 hPa 0,0 l/m 25,3 km/h (4 Bft) S-SO 155 0 min 0 W/m -4,1 C -13,7 C 25,3 km/h (4 Bft)
13.01.2010 21:52 -1,4 C 82 % 1008,5 hPa 0,0 l/m 26,4 km/h (4 Bft) SO 145 0 min 0 W/m -4,1 C -14,1 C 26,4 km/h (4 Bft)
13.01.2010 21:57 -1,4 C 82 % 1008,5 hPa 0,0 l/m 20,2 km/h (4 Bft) S-SO 160 0 min 0 W/m -4,1 C -11,5 C 20,2 km/h (4 Bft)
13.01.2010 22:02 -1,4 C 82 % 1008,5 hPa 0,0 l/m 25,6 km/h (4 Bft) S-SO 165 0 min 0 W/m -4,1 C -13,8 C 25,6 km/h (4 Bft)
13.01.2010 22:07 -1,4 C 82 % 1008,5 hPa 0,0 l/m 24,8 km/h (4 Bft) SO 145 0 min 0 W/m -4,1 C -13,5 C 24,8 km/h (4 Bft)
13.01.2010 22:12 -1,4 C 82 % 1008,5 hPa 0,0 l/m 22,8 km/h (4 Bft) SO 140 0 min 0 W/m -4,1 C -12,7 C 22,8 km/h (4 Bft)
13.01.2010 22:17 -1,3 C 82 % 1008,5 hPa 0,0 l/m 30,6 km/h (5 Bft) SO 145 0 min 0 W/m -4,0 C -15,4 C 30,6 km/h (5 Bft)
13.01.2010 22:22 -1,3 C 82 % 1008,5 hPa 0,0 l/m 20,0 km/h (4 Bft) S-SO 150 0 min 0 W/m -4,0 C -11,3 C 20,0 km/h (4 Bft)
13.01.2010 22:27 -1,3 C 82 % 1008,5 hPa 0,0 l/m 24,8 km/h (4 Bft) SO 140 0 min 0 W/m -4,0 C -13,4 C 24,8 km/h (4 Bft)
13.01.2010 22:32 -1,3 C 82 % 1008,5 hPa 0,0 l/m 31,0 km/h (5 Bft) SO 145 0 min 0 W/m -4,0 C -15,5 C 31,0 km/h (5 Bft)
13.01.2010 22:37 -1,3 C 82 % 1008,5 hPa 0,0 l/m 20,3 km/h (4 Bft) SO 125 0 min 0 W/m -4,0 C -11,5 C 20,3 km/h (4 Bft)
13.01.2010 22:42 -1,2 C 82 % 1008,5 hPa 0,0 l/m 23,6 km/h (4 Bft) SO 140 0 min 0 W/m -3,9 C -12,8 C 23,6 km/h (4 Bft)
13.01.2010 22:47 -1,2 C 82 % 1008,5 hPa 0,0 l/m 25,8 km/h (4 Bft) SO 145 0 min 0 W/m -3,9 C -13,6 C 25,8 km/h (4 Bft)
13.01.2010 22:52 -1,2 C 81 % 1008,5 hPa 0,0 l/m 27,6 km/h (5 Bft) SO 145 0 min 0 W/m -4,0 C -14,3 C 27,6 km/h (5 Bft)
13.01.2010 22:57 -1,1 C 81 % 1008,5 hPa 0,0 l/m 25,5 km/h (4 Bft) SO 140 0 min 0 W/m -3,9 C -13,4 C 25,5 km/h (4 Bft)
13.01.2010 23:02 -1,1 C 81 % 1008,5 hPa 0,0 l/m 22,2 km/h (4 Bft) SO 140 0 min 0 W/m -3,9 C -12,1 C 22,2 km/h (4 Bft)
13.01.2010 23:07 -1,1 C 81 % 1008,5 hPa 0,0 l/m 26,8 km/h (4 Bft) SO 145 0 min 0 W/m -3,9 C -13,9 C 26,8 km/h (4 Bft)
13.01.2010 23:12 -1,1 C 81 % 1008,5 hPa 0,0 l/m 22,5 km/h (4 Bft) SO 140 0 min 0 W/m -3,9 C -12,2 C 22,5 km/h (4 Bft)
13.01.2010 23:17 -1,0 C 81 % 1008,5 hPa 0,0 l/m 34,3 km/h (5 Bft) SO 140 0 min 0 W/m -3,8 C -16,1 C 34,3 km/h (5 Bft)
13.01.2010 23:22 -1,0 C 81 % 1008,5 hPa 0,0 l/m 25,3 km/h (4 Bft) SO 145 0 min 0 W/m -3,8 C -13,2 C 25,3 km/h (4 Bft)
13.01.2010 23:27 -1,0 C 81 % 1008,5 hPa 0,0 l/m 33,8 km/h (5 Bft) SO 135 0 min 0 W/m -3,8 C -15,9 C 33,8 km/h (5 Bft)
13.01.2010 23:32 -1,0 C 81 % 1008,5 hPa 0,0 l/m 27,7 km/h (5 Bft) SO 125 0 min 0 W/m -3,8 C -14,1 C 27,7 km/h (5 Bft)
13.01.2010 23:37 -0,9 C 81 % 1008,5 hPa 0,0 l/m 32,7 km/h (5 Bft) SO 140 0 min 0 W/m -3,7 C -15,5 C 32,7 km/h (5 Bft)
13.01.2010 23:42 -0,9 C 81 % 1008,5 hPa 0,0 l/m 20,9 km/h (4 Bft) S-SO 150 0 min 0 W/m -3,7 C -11,2 C 20,9 km/h (4 Bft)
13.01.2010 23:47 -0,8 C 80 % 1008,5 hPa 0,0 l/m 26,6 km/h (4 Bft) SO 135 0 min 0 W/m -3,8 C -13,4 C 26,6 km/h (4 Bft)
13.01.2010 23:52 -0,8 C 80 % 1008,5 hPa 0,0 l/m 23,8 km/h (4 Bft) SO 145 0 min 0 W/m -3,8 C -12,3 C 23,8 km/h (4 Bft)
13.01.2010 23:57 -0,8 C 80 % 1008,5 hPa 0,0 l/m 22,1 km/h (4 Bft) SO 140 0 min 0 W/m -3,8 C -11,6 C 22,1 km/h (4 Bft)
_ Min-Zeit 00:01 00:01 14:47 - 09:17 - - - - 00:01 13:12 09:17
Minimum _ -2,1 C 72 % 1008,5 hPa - 6,4 km/h (2 Bft) - - - - -6,5 C -19,1 C 6,4 km/h (2 Bft)
_ Max-Zeit 23:47 20:02 15:22 00:01 13:12 - - 00:01 00:01 23:37 09:17 13:12
Maximum _ -0,8 C 83 % 1018,5 hPa 0,0 l/m 40,2 km/h
SO (6 Bft)
- - 0 min 0 W/m -3,7 C -2,1 C 40,2 km/h
SO (6 Bft)
Durchschnitt _ -1,9 C 75 % 1010,3 hPa #0,0 l/m 26,9 km/h (4 Bft) SO - #0 min. 0 W/m -5,8 C -14,8 C 26,9 km/h (4 Bft)
copyright by Holger Just